Hlavní strana
METAR-TAF:

METAR-TAF

Letiště :

Alžír, Alžírsko

Letiště Houariho Boumédièna

zeměpisná šířka: 36-43N, zeměpisná délka: 003-15E, výška: 25 m

Aktuální stav počasí

Zpráva byla vytvořena před 30 minutami, v 03:30 UTC
Jižní vítr 1 kt
Teplota 6°C
Vlhkost vzduchu 93%
Tlak 1025 hPa
Viditelnost 10 km a více
Žádná oblačnost pod 1500 m, nevyskytují se cumulonimby.

METAR: DAAG 230330Z 19001KT CAVOK 06/05 Q1025

Čas: 05:00 (04:00 UTC)

Předpověď počasí

Zpráva byla vytvořena před 5 hodinami a 0 minutami, v 23:00 UTC
Předpověď platná od 23 v 00 UTC do 23 v 24 UTC
vítr z různých směrů 2 kt
Viditelnost 10 km a více
Žádná oblačnost pod 1500 m, nevyskytují se cumulonimby.

TAF: DAAG 222300Z 2300/2324 VRB02KT CAVOK

Stav a předpovědi počasí z více než 4 000 letišť (zprávy METAR a TAF).

Červené a žluté tečky na mapě představují dostupné meteorologické stanice.

Když kurzor umístíte na tečku, zobrazí se název stanice.

Pak kliknutím zobrazíte stav a předpověď počasí.

Chcete-li změnit mapu, kliknutím na zelené tlačítko se znaménkem +mapu přiblížíte, kliknutím na zelené tlačítko se znaménkem – mapu oddálíte a kliknutím na zelené šipky přejdete na sousední mapy.


METAR-TAF: